sensor_id;sensor_type;location;lat;lon;timestamp;temperature;humidity
23271;DHT22;11804;51.118;17.058;2023-05-10T00:02:16;10.20;79.20
23271;DHT22;11804;51.118;17.058;2023-05-10T00:04:43;10.10;80.20
23271;DHT22;11804;51.118;17.058;2023-05-10T00:07:11;10.20;80.40
23271;DHT22;11804;51.118;17.058;2023-05-10T00:09:38;10.10;81.40
23271;DHT22;11804;51.118;17.058;2023-05-10T00:12:06;10.00;82.70
23271;DHT22;11804;51.118;17.058;2023-05-10T00:14:34;9.90;83.70
23271;DHT22;11804;51.118;17.058;2023-05-10T00:17:01;10.00;83.90
23271;DHT22;11804;51.118;17.058;2023-05-10T00:19:29;10.00;84.20
23271;DHT22;11804;51.118;17.058;2023-05-10T00:21:57;9.90;85.20
23271;DHT22;11804;51.118;17.058;2023-05-10T00:24:24;9.80;87.10
23271;DHT22;11804;51.118;17.058;2023-05-10T00:26:52;9.70;88.80
23271;DHT22;11804;51.118;17.058;2023-05-10T00:29:19;9.60;90.00
23271;DHT22;11804;51.118;17.058;2023-05-10T00:31:47;9.70;90.70
23271;DHT22;11804;51.118;17.058;2023-05-10T00:34:15;9.60;91.40
23271;DHT22;11804;51.118;17.058;2023-05-10T00:36:42;9.60;91.60
23271;DHT22;11804;51.118;17.058;2023-05-10T00:39:10;9.70;91.70
23271;DHT22;11804;51.118;17.058;2023-05-10T00:41:39;9.60;92.10
23271;DHT22;11804;51.118;17.058;2023-05-10T00:44:06;9.60;92.40
23271;DHT22;11804;51.118;17.058;2023-05-10T00:46:34;9.50;93.60
23271;DHT22;11804;51.118;17.058;2023-05-10T00:49:02;9.50;94.10
23271;DHT22;11804;51.118;17.058;2023-05-10T00:51:31;9.40;94.90
23271;DHT22;11804;51.118;17.058;2023-05-10T00:53:58;9.50;95.30
23271;DHT22;11804;51.118;17.058;2023-05-10T00:56:26;9.40;96.90
23271;DHT22;11804;51.118;17.058;2023-05-10T00:58:56;9.30;97.50
23271;DHT22;11804;51.118;17.058;2023-05-10T01:01:24;9.30;98.00
23271;DHT22;11804;51.118;17.058;2023-05-10T01:03:52;9.30;98.10
23271;DHT22;11804;51.118;17.058;2023-05-10T01:06:21;9.30;98.70
23271;DHT22;11804;51.118;17.058;2023-05-10T01:08:49;9.30;99.10
23271;DHT22;11804;51.118;17.058;2023-05-10T01:11:17;9.20;99.90
23271;DHT22;11804;51.118;17.058;2023-05-10T01:13:47;9.20;99.90
23271;DHT22;11804;51.118;17.058;2023-05-10T01:16:15;9.10;99.90
23271;DHT22;11804;51.118;17.058;2023-05-10T01:18:44;9.10;99.90
23271;DHT22;11804;51.118;17.058;2023-05-10T01:37:31;8.80;99.90
23271;DHT22;11804;51.118;17.058;2023-05-10T01:42:39;8.70;99.90
23271;DHT22;11804;51.118;17.058;2023-05-10T01:47:46;8.70;99.90
23271;DHT22;11804;51.118;17.058;2023-05-10T01:50:22;8.80;99.90
23271;DHT22;11804;51.118;17.058;2023-05-10T01:52:53;8.90;99.90
23271;DHT22;11804;51.118;17.058;2023-05-10T01:55:20;8.80;99.90
23271;DHT22;11804;51.118;17.058;2023-05-10T01:57:51;8.70;99.90
23271;DHT22;11804;51.118;17.058;2023-05-10T02:00:20;8.60;99.90
23271;DHT22;11804;51.118;17.058;2023-05-10T02:02:49;8.70;99.90
23271;DHT22;11804;51.118;17.058;2023-05-10T02:05:18;8.70;99.90
23271;DHT22;11804;51.118;17.058;2023-05-10T02:07:47;8.60;99.90
23271;DHT22;11804;51.118;17.058;2023-05-10T02:10:16;8.60;99.90
23271;DHT22;11804;51.118;17.058;2023-05-10T02:12:46;8.60;99.90
23271;DHT22;11804;51.118;17.058;2023-05-10T02:15:18;8.60;99.90
23271;DHT22;11804;51.118;17.058;2023-05-10T02:17:47;8.70;99.90
23271;DHT22;11804;51.118;17.058;2023-05-10T02:20:16;8.70;99.90
23271;DHT22;11804;51.118;17.058;2023-05-10T02:22:46;8.70;99.90
23271;DHT22;11804;51.118;17.058;2023-05-10T02:25:17;8.60;99.90
23271;DHT22;11804;51.118;17.058;2023-05-10T02:27:45;8.50;99.90
23271;DHT22;11804;51.118;17.058;2023-05-10T02:30:14;8.40;99.90
23271;DHT22;11804;51.118;17.058;2023-05-10T02:32:44;8.40;99.90
23271;DHT22;11804;51.118;17.058;2023-05-10T02:35:12;8.30;99.90
23271;DHT22;11804;51.118;17.058;2023-05-10T02:37:40;8.30;99.90
23271;DHT22;11804;51.118;17.058;2023-05-10T02:40:09;8.40;99.90
23271;DHT22;11804;51.118;17.058;2023-05-10T02:42:39;8.40;99.90
23271;DHT22;11804;51.118;17.058;2023-05-10T02:45:13;8.50;99.90
23271;DHT22;11804;51.118;17.058;2023-05-10T02:47:41;8.40;99.90
23271;DHT22;11804;51.118;17.058;2023-05-10T02:50:10;8.40;99.90
23271;DHT22;11804;51.118;17.058;2023-05-10T02:52:40;8.40;99.90
23271;DHT22;11804;51.118;17.058;2023-05-10T02:55:09;8.40;99.90
23271;DHT22;11804;51.118;17.058;2023-05-10T02:57:46;8.40;99.90
23271;DHT22;11804;51.118;17.058;2023-05-10T03:00:14;8.50;99.90
23271;DHT22;11804;51.118;17.058;2023-05-10T03:02:41;8.50;99.90
23271;DHT22;11804;51.118;17.058;2023-05-10T03:05:09;8.50;99.90
23271;DHT22;11804;51.118;17.058;2023-05-10T03:07:37;8.40;99.90
23271;DHT22;11804;51.118;17.058;2023-05-10T03:10:07;8.50;99.90
23271;DHT22;11804;51.118;17.058;2023-05-10T03:17:56;8.60;99.90
23271;DHT22;11804;51.118;17.058;2023-05-10T03:20:27;8.60;99.90
23271;DHT22;11804;51.118;17.058;2023-05-10T03:23:04;8.60;99.90
23271;DHT22;11804;51.118;17.058;2023-05-10T03:25:33;8.60;99.90
23271;DHT22;11804;51.118;17.058;2023-05-10T03:28:02;8.60;99.90
23271;DHT22;11804;51.118;17.058;2023-05-10T03:30:32;8.70;99.90
23271;DHT22;11804;51.118;17.058;2023-05-10T03:33:05;8.70;99.90
23271;DHT22;11804;51.118;17.058;2023-05-10T03:35:33;8.70;99.90
23271;DHT22;11804;51.118;17.058;2023-05-10T03:38:00;8.80;99.90
23271;DHT22;11804;51.118;17.058;2023-05-10T03:40:29;8.80;99.90
23271;DHT22;11804;51.118;17.058;2023-05-10T03:43:01;8.70;99.90
23271;DHT22;11804;51.118;17.058;2023-05-10T03:45:28;8.70;99.90
23271;DHT22;11804;51.118;17.058;2023-05-10T03:47:58;8.70;99.90
23271;DHT22;11804;51.118;17.058;2023-05-10T03:50:25;8.80;99.90
23271;DHT22;11804;51.118;17.058;2023-05-10T03:52:53;8.90;99.90
23271;DHT22;11804;51.118;17.058;2023-05-10T03:55:21;8.80;99.90
23271;DHT22;11804;51.118;17.058;2023-05-10T03:57:49;8.90;99.90
23271;DHT22;11804;51.118;17.058;2023-05-10T04:00:16;9.00;99.90
23271;DHT22;11804;51.118;17.058;2023-05-10T04:02:44;9.00;99.90
23271;DHT22;11804;51.118;17.058;2023-05-10T04:05:12;9.00;99.90
23271;DHT22;11804;51.118;17.058;2023-05-10T04:07:39;9.00;99.90
23271;DHT22;11804;51.118;17.058;2023-05-10T04:10:08;9.00;99.90
23271;DHT22;11804;51.118;17.058;2023-05-10T04:12:35;9.10;99.90
23271;DHT22;11804;51.118;17.058;2023-05-10T04:15:04;9.20;99.90
23271;DHT22;11804;51.118;17.058;2023-05-10T04:17:32;9.20;99.90
23271;DHT22;11804;51.118;17.058;2023-05-10T04:19:59;9.40;99.70
23271;DHT22;11804;51.118;17.058;2023-05-10T04:22:27;9.60;98.60
23271;DHT22;11804;51.118;17.058;2023-05-10T04:24:55;10.30;94.00
23271;DHT22;11804;51.118;17.058;2023-05-10T04:27:23;11.00;89.00
23271;DHT22;11804;51.118;17.058;2023-05-10T04:29:50;11.80;82.80
23271;DHT22;11804;51.118;17.058;2023-05-10T04:32:18;12.00;77.90
23271;DHT22;11804;51.118;17.058;2023-05-10T04:34:47;12.30;75.90
23271;DHT22;11804;51.118;17.058;2023-05-10T04:37:14;12.50;74.30
23271;DHT22;11804;51.118;17.058;2023-05-10T04:39:42;12.60;71.30
23271;DHT22;11804;51.118;17.058;2023-05-10T04:42:10;13.10;70.20
23271;DHT22;11804;51.118;17.058;2023-05-10T04:44:38;13.40;68.30
23271;DHT22;11804;51.118;17.058;2023-05-10T04:47:06;13.20;68.30
23271;DHT22;11804;51.118;17.058;2023-05-10T04:49:33;13.60;66.40
23271;DHT22;11804;51.118;17.058;2023-05-10T04:52:01;13.60;66.00
23271;DHT22;11804;51.118;17.058;2023-05-10T04:54:29;13.30;66.40
23271;DHT22;11804;51.118;17.058;2023-05-10T04:56:56;13.50;65.50
23271;DHT22;11804;51.118;17.058;2023-05-10T04:59:24;13.70;64.80
23271;DHT22;11804;51.118;17.058;2023-05-10T05:01:52;14.50;62.10
23271;DHT22;11804;51.118;17.058;2023-05-10T05:04:19;14.40;61.90
23271;DHT22;11804;51.118;17.058;2023-05-10T05:06:49;14.60;59.80
23271;DHT22;11804;51.118;17.058;2023-05-10T05:09:16;14.30;61.50
23271;DHT22;11804;51.118;17.058;2023-05-10T05:11:44;14.20;61.00
23271;DHT22;11804;51.118;17.058;2023-05-10T05:14:11;14.20;60.10
23271;DHT22;11804;51.118;17.058;2023-05-10T05:16:39;14.20;60.90
23271;DHT22;11804;51.118;17.058;2023-05-10T05:19:06;14.60;59.80
23271;DHT22;11804;51.118;17.058;2023-05-10T05:21:34;15.20;58.20
23271;DHT22;11804;51.118;17.058;2023-05-10T05:24:02;15.60;56.30
23271;DHT22;11804;51.118;17.058;2023-05-10T05:26:29;15.00;56.50
23271;DHT22;11804;51.118;17.058;2023-05-10T05:28:57;14.90;57.30
23271;DHT22;11804;51.118;17.058;2023-05-10T05:31:25;14.90;57.30
23271;DHT22;11804;51.118;17.058;2023-05-10T05:33:53;14.80;57.50
23271;DHT22;11804;51.118;17.058;2023-05-10T05:36:20;15.00;56.50
23271;DHT22;11804;51.118;17.058;2023-05-10T05:38:48;14.60;58.00
23271;DHT22;11804;51.118;17.058;2023-05-10T05:41:16;16.00;55.80
23271;DHT22;11804;51.118;17.058;2023-05-10T05:43:43;16.50;52.70
23271;DHT22;11804;51.118;17.058;2023-05-10T05:46:11;17.00;52.60
23271;DHT22;11804;51.118;17.058;2023-05-10T05:48:38;17.00;51.70
23271;DHT22;11804;51.118;17.058;2023-05-10T05:51:06;17.60;50.60
23271;DHT22;11804;51.118;17.058;2023-05-10T05:53:34;17.90;49.60
23271;DHT22;11804;51.118;17.058;2023-05-10T05:56:03;19.50;46.10
23271;DHT22;11804;51.118;17.058;2023-05-10T05:58:31;19.60;44.80
23271;DHT22;11804;51.118;17.058;2023-05-10T06:00:58;18.80;47.60
23271;DHT22;11804;51.118;17.058;2023-05-10T06:03:26;19.70;44.60
23271;DHT22;11804;51.118;17.058;2023-05-10T06:05:55;20.00;43.60
23271;DHT22;11804;51.118;17.058;2023-05-10T06:08:23;20.30;43.50
23271;DHT22;11804;51.118;17.058;2023-05-10T06:10:50;21.10;41.90
23271;DHT22;11804;51.118;17.058;2023-05-10T06:13:18;20.60;41.80
23271;DHT22;11804;51.118;17.058;2023-05-10T06:15:46;20.80;41.30
23271;DHT22;11804;51.118;17.058;2023-05-10T06:18:13;21.10;41.10
23271;DHT22;11804;51.118;17.058;2023-05-10T06:20:41;19.70;42.40
23271;DHT22;11804;51.118;17.058;2023-05-10T06:23:09;17.70;47.50
23271;DHT22;11804;51.118;17.058;2023-05-10T06:25:37;18.80;46.70
23271;DHT22;11804;51.118;17.058;2023-05-10T06:28:05;18.50;46.70
23271;DHT22;11804;51.118;17.058;2023-05-10T06:30:32;17.50;48.20
23271;DHT22;11804;51.118;17.058;2023-05-10T06:33:00;16.80;49.70
23271;DHT22;11804;51.118;17.058;2023-05-10T06:35:28;16.50;50.70
23271;DHT22;11804;51.118;17.058;2023-05-10T06:37:56;16.60;51.20
23271;DHT22;11804;51.118;17.058;2023-05-10T06:40:24;16.90;50.70
23271;DHT22;11804;51.118;17.058;2023-05-10T06:42:52;16.80;51.00
23271;DHT22;11804;51.118;17.058;2023-05-10T06:45:20;16.40;51.30
23271;DHT22;11804;51.118;17.058;2023-05-10T06:47:48;16.80;51.80
23271;DHT22;11804;51.118;17.058;2023-05-10T06:50:16;18.40;48.00
23271;DHT22;11804;51.118;17.058;2023-05-10T06:52:43;19.50;45.60
23271;DHT22;11804;51.118;17.058;2023-05-10T06:55:11;20.20;43.80
23271;DHT22;11804;51.118;17.058;2023-05-10T06:57:41;19.10;46.20
23271;DHT22;11804;51.118;17.058;2023-05-10T07:00:09;19.10;47.50
23271;DHT22;11804;51.118;17.058;2023-05-10T07:02:38;18.30;47.20
23271;DHT22;11804;51.118;17.058;2023-05-10T07:05:06;17.80;49.60
23271;DHT22;11804;51.118;17.058;2023-05-10T07:07:33;17.50;49.20
23271;DHT22;11804;51.118;17.058;2023-05-10T07:10:02;16.80;51.00
23271;DHT22;11804;51.118;17.058;2023-05-10T07:12:29;16.50;52.00
23271;DHT22;11804;51.118;17.058;2023-05-10T07:14:58;17.10;51.50
23271;DHT22;11804;51.118;17.058;2023-05-10T07:17:26;17.30;51.20
23271;DHT22;11804;51.118;17.058;2023-05-10T07:19:54;17.50;50.40
23271;DHT22;11804;51.118;17.058;2023-05-10T07:22:21;17.10;51.60
23271;DHT22;11804;51.118;17.058;2023-05-10T07:24:49;18.20;49.70
23271;DHT22;11804;51.118;17.058;2023-05-10T07:27:17;17.70;49.90
23271;DHT22;11804;51.118;17.058;2023-05-10T07:29:44;18.00;49.70
23271;DHT22;11804;51.118;17.058;2023-05-10T07:32:12;17.20;51.20
23271;DHT22;11804;51.118;17.058;2023-05-10T07:34:39;17.70;51.10
23271;DHT22;11804;51.118;17.058;2023-05-10T07:37:09;18.20;49.40
23271;DHT22;11804;51.118;17.058;2023-05-10T07:39:36;18.30;49.90
23271;DHT22;11804;51.118;17.058;2023-05-10T07:42:04;18.00;50.10
23271;DHT22;11804;51.118;17.058;2023-05-10T07:44:32;18.30;49.80
23271;DHT22;11804;51.118;17.058;2023-05-10T07:46:59;18.60;49.60
23271;DHT22;11804;51.118;17.058;2023-05-10T07:49:27;18.40;49.20
23271;DHT22;11804;51.118;17.058;2023-05-10T07:51:55;19.40;49.00
23271;DHT22;11804;51.118;17.058;2023-05-10T07:54:23;20.50;46.10
23271;DHT22;11804;51.118;17.058;2023-05-10T07:56:51;21.70;44.30
23271;DHT22;11804;51.118;17.058;2023-05-10T07:59:18;22.30;42.50
23271;DHT22;11804;51.118;17.058;2023-05-10T08:01:46;21.20;44.50
23271;DHT22;11804;51.118;17.058;2023-05-10T08:04:14;21.10;44.50
23271;DHT22;11804;51.118;17.058;2023-05-10T08:06:42;19.90;46.80
23271;DHT22;11804;51.118;17.058;2023-05-10T08:09:10;19.90;47.50
23271;DHT22;11804;51.118;17.058;2023-05-10T08:11:38;19.20;47.90
23271;DHT22;11804;51.118;17.058;2023-05-10T08:14:05;19.90;47.40
23271;DHT22;11804;51.118;17.058;2023-05-10T08:16:33;21.30;45.00
23271;DHT22;11804;51.118;17.058;2023-05-10T08:19:01;22.30;43.10
23271;DHT22;11804;51.118;17.058;2023-05-10T08:21:30;21.80;44.30
23271;DHT22;11804;51.118;17.058;2023-05-10T08:23:58;22.00;43.00
23271;DHT22;11804;51.118;17.058;2023-05-10T08:26:25;20.70;44.70
23271;DHT22;11804;51.118;17.058;2023-05-10T08:28:53;21.60;45.20
23271;DHT22;11804;51.118;17.058;2023-05-10T08:31:21;22.50;42.80
23271;DHT22;11804;51.118;17.058;2023-05-10T08:33:50;23.10;41.10
23271;DHT22;11804;51.118;17.058;2023-05-10T08:36:19;23.40;40.60
23271;DHT22;11804;51.118;17.058;2023-05-10T08:38:52;23.20;40.90
23271;DHT22;11804;51.118;17.058;2023-05-10T08:41:20;23.10;41.10
23271;DHT22;11804;51.118;17.058;2023-05-10T08:43:54;20.80;44.10
23271;DHT22;11804;51.118;17.058;2023-05-10T08:46:22;19.70;48.30
23271;DHT22;11804;51.118;17.058;2023-05-10T08:48:51;21.20;45.40
23271;DHT22;11804;51.118;17.058;2023-05-10T08:51:22;20.80;43.60
23271;DHT22;11804;51.118;17.058;2023-05-10T08:53:50;19.40;47.80
23271;DHT22;11804;51.118;17.058;2023-05-10T08:56:19;21.20;45.90
23271;DHT22;11804;51.118;17.058;2023-05-10T08:58:47;22.40;42.40
23271;DHT22;11804;51.118;17.058;2023-05-10T09:01:17;23.00;40.50
23271;DHT22;11804;51.118;17.058;2023-05-10T09:03:46;22.00;43.20
23271;DHT22;11804;51.118;17.058;2023-05-10T09:06:15;23.20;41.00
23271;DHT22;11804;51.118;17.058;2023-05-10T09:08:43;23.10;40.60
23271;DHT22;11804;51.118;17.058;2023-05-10T09:11:12;23.30;40.50
23271;DHT22;11804;51.118;17.058;2023-05-10T09:13:40;23.60;39.90
23271;DHT22;11804;51.118;17.058;2023-05-10T09:16:09;22.00;42.30
23271;DHT22;11804;51.118;17.058;2023-05-10T09:18:37;20.80;44.30
23271;DHT22;11804;51.118;17.058;2023-05-10T09:21:05;20.50;46.70
23271;DHT22;11804;51.118;17.058;2023-05-10T09:23:32;21.90;43.90
23271;DHT22;11804;51.118;17.058;2023-05-10T09:26:08;21.90;43.30
23271;DHT22;11804;51.118;17.058;2023-05-10T09:28:34;21.20;43.90
23271;DHT22;11804;51.118;17.058;2023-05-10T09:31:03;20.20;46.30
23271;DHT22;11804;51.118;17.058;2023-05-10T09:33:43;20.40;47.70
23271;DHT22;11804;51.118;17.058;2023-05-10T09:36:08;21.80;44.00
23271;DHT22;11804;51.118;17.058;2023-05-10T09:38:48;22.10;44.00
23271;DHT22;11804;51.118;17.058;2023-05-10T09:41:23;20.30;46.50
23271;DHT22;11804;51.118;17.058;2023-05-10T09:43:48;21.00;46.40
23271;DHT22;11804;51.118;17.058;2023-05-10T09:46:16;20.70;45.80
23271;DHT22;11804;51.118;17.058;2023-05-10T09:48:46;19.80;46.90
23271;DHT22;11804;51.118;17.058;2023-05-10T09:51:24;19.00;48.20
23271;DHT22;11804;51.118;17.058;2023-05-10T09:54:12;19.10;49.20
23271;DHT22;11804;51.118;17.058;2023-05-10T09:56:41;18.80;50.00
23271;DHT22;11804;51.118;17.058;2023-05-10T09:59:10;20.20;48.00
23271;DHT22;11804;51.118;17.058;2023-05-10T10:01:40;21.10;45.40
23271;DHT22;11804;51.118;17.058;2023-05-10T10:04:09;20.80;46.50
23271;DHT22;11804;51.118;17.058;2023-05-10T10:06:38;20.20;47.00
23271;DHT22;11804;51.118;17.058;2023-05-10T10:09:07;21.30;44.50
23271;DHT22;11804;51.118;17.058;2023-05-10T10:11:36;22.30;42.10
23271;DHT22;11804;51.118;17.058;2023-05-10T10:14:05;22.40;41.60
23271;DHT22;11804;51.118;17.058;2023-05-10T10:16:33;21.80;42.60
23271;DHT22;11804;51.118;17.058;2023-05-10T10:19:01;21.20;44.40
23271;DHT22;11804;51.118;17.058;2023-05-10T10:21:28;20.70;45.40
23271;DHT22;11804;51.118;17.058;2023-05-10T10:23:57;20.20;46.80
23271;DHT22;11804;51.118;17.058;2023-05-10T10:26:25;21.20;45.00
23271;DHT22;11804;51.118;17.058;2023-05-10T10:29:08;22.00;43.00
23271;DHT22;11804;51.118;17.058;2023-05-10T10:34:11;22.80;40.40
23271;DHT22;11804;51.118;17.058;2023-05-10T10:36:43;21.60;42.80
23271;DHT22;11804;51.118;17.058;2023-05-10T10:39:11;21.30;44.80
23271;DHT22;11804;51.118;17.058;2023-05-10T10:41:54;20.40;45.10
23271;DHT22;11804;51.118;17.058;2023-05-10T10:52:27;19.90;47.80
23271;DHT22;11804;51.118;17.058;2023-05-10T10:55:02;19.80;46.20
23271;DHT22;11804;51.118;17.058;2023-05-10T10:57:35;20.00;46.30
23271;DHT22;11804;51.118;17.058;2023-05-10T11:00:30;19.90;46.80
23271;DHT22;11804;51.118;17.058;2023-05-10T11:05:42;20.60;45.80
23271;DHT22;11804;51.118;17.058;2023-05-10T11:08:31;21.00;45.10
23271;DHT22;11804;51.118;17.058;2023-05-10T11:13:36;19.80;47.30
23271;DHT22;11804;51.118;17.058;2023-05-10T11:16:20;19.70;48.20
23271;DHT22;11804;51.118;17.058;2023-05-10T11:19:04;20.10;48.10
23271;DHT22;11804;51.118;17.058;2023-05-10T11:21:33;19.90;47.80
23271;DHT22;11804;51.118;17.058;2023-05-10T11:24:03;19.70;48.60
23271;DHT22;11804;51.118;17.058;2023-05-10T11:26:35;20.00;48.40
23271;DHT22;11804;51.118;17.058;2023-05-10T11:29:03;20.10;48.20
23271;DHT22;11804;51.118;17.058;2023-05-10T11:31:31;20.70;46.90
23271;DHT22;11804;51.118;17.058;2023-05-10T11:34:00;21.10;44.30
23271;DHT22;11804;51.118;17.058;2023-05-10T11:36:32;21.00;44.90
23271;DHT22;11804;51.118;17.058;2023-05-10T11:38:58;20.90;45.30
23271;DHT22;11804;51.118;17.058;2023-05-10T11:41:28;21.00;45.20
23271;DHT22;11804;51.118;17.058;2023-05-10T11:43:56;20.80;44.80
23271;DHT22;11804;51.118;17.058;2023-05-10T11:46:26;20.00;46.70
23271;DHT22;11804;51.118;17.058;2023-05-10T11:49:01;19.60;47.70
23271;DHT22;11804;51.118;17.058;2023-05-10T11:51:36;19.60;47.30
23271;DHT22;11804;51.118;17.058;2023-05-10T11:54:07;19.70;47.70
23271;DHT22;11804;51.118;17.058;2023-05-10T11:56:39;19.60;47.60
23271;DHT22;11804;51.118;17.058;2023-05-10T11:59:07;19.80;48.10
23271;DHT22;11804;51.118;17.058;2023-05-10T12:01:35;20.40;47.10
23271;DHT22;11804;51.118;17.058;2023-05-10T12:04:03;20.70;45.60
23271;DHT22;11804;51.118;17.058;2023-05-10T12:06:36;20.30;45.60
23271;DHT22;11804;51.118;17.058;2023-05-10T12:09:06;20.10;46.50
23271;DHT22;11804;51.118;17.058;2023-05-10T12:11:37;19.90;46.70
23271;DHT22;11804;51.118;17.058;2023-05-10T12:14:05;20.10;45.90
23271;DHT22;11804;51.118;17.058;2023-05-10T12:16:33;20.10;46.00
23271;DHT22;11804;51.118;17.058;2023-05-10T12:19:01;20.30;45.10
23271;DHT22;11804;51.118;17.058;2023-05-10T12:21:29;20.50;44.30
23271;DHT22;11804;51.118;17.058;2023-05-10T12:24:03;20.40;44.80
23271;DHT22;11804;51.118;17.058;2023-05-10T12:26:33;20.00;45.30
23271;DHT22;11804;51.118;17.058;2023-05-10T12:29:16;19.80;46.30
23271;DHT22;11804;51.118;17.058;2023-05-10T12:31:59;20.00;46.20
23271;DHT22;11804;51.118;17.058;2023-05-10T12:34:31;19.90;46.20
23271;DHT22;11804;51.118;17.058;2023-05-10T12:36:59;19.80;46.20
23271;DHT22;11804;51.118;17.058;2023-05-10T12:39:38;19.90;45.90
23271;DHT22;11804;51.118;17.058;2023-05-10T12:42:06;20.00;46.70
23271;DHT22;11804;51.118;17.058;2023-05-10T12:44:33;20.00;46.20
23271;DHT22;11804;51.118;17.058;2023-05-10T12:47:01;19.70;46.20
23271;DHT22;11804;51.118;17.058;2023-05-10T12:49:29;19.70;46.20
23271;DHT22;11804;51.118;17.058;2023-05-10T12:51:56;19.50;46.50
23271;DHT22;11804;51.118;17.058;2023-05-10T12:54:24;19.50;46.70
23271;DHT22;11804;51.118;17.058;2023-05-10T12:56:52;19.40;46.90
23271;DHT22;11804;51.118;17.058;2023-05-10T12:59:19;19.50;47.00
23271;DHT22;11804;51.118;17.058;2023-05-10T13:01:47;19.60;46.70
23271;DHT22;11804;51.118;17.058;2023-05-10T13:04:15;20.00;46.30
23271;DHT22;11804;51.118;17.058;2023-05-10T13:06:45;20.30;45.70
23271;DHT22;11804;51.118;17.058;2023-05-10T13:09:12;20.20;45.40
23271;DHT22;11804;51.118;17.058;2023-05-10T13:11:40;20.20;45.70
23271;DHT22;11804;51.118;17.058;2023-05-10T13:14:08;20.20;45.20
23271;DHT22;11804;51.118;17.058;2023-05-10T13:16:37;19.80;45.90
23271;DHT22;11804;51.118;17.058;2023-05-10T13:19:04;19.90;45.60
23271;DHT22;11804;51.118;17.058;2023-05-10T13:21:32;20.00;45.10
23271;DHT22;11804;51.118;17.058;2023-05-10T13:24:02;20.10;44.80
23271;DHT22;11804;51.118;17.058;2023-05-10T13:26:33;20.30;44.60
23271;DHT22;11804;51.118;17.058;2023-05-10T13:29:03;20.30;44.00
23271;DHT22;11804;51.118;17.058;2023-05-10T13:31:31;20.50;44.30
23271;DHT22;11804;51.118;17.058;2023-05-10T13:33:59;20.60;43.30
23271;DHT22;11804;51.118;17.058;2023-05-10T13:36:28;20.60;43.20
23271;DHT22;11804;51.118;17.058;2023-05-10T13:38:56;20.70;43.60
23271;DHT22;11804;51.118;17.058;2023-05-10T13:41:24;20.60;43.70
23271;DHT22;11804;51.118;17.058;2023-05-10T13:43:54;20.30;44.30
23271;DHT22;11804;51.118;17.058;2023-05-10T13:46:22;20.60;44.00
23271;DHT22;11804;51.118;17.058;2023-05-10T13:48:50;20.80;43.30
23271;DHT22;11804;51.118;17.058;2023-05-10T13:51:17;20.60;43.40
23271;DHT22;11804;51.118;17.058;2023-05-10T13:53:49;20.80;43.20
23271;DHT22;11804;51.118;17.058;2023-05-10T13:56:18;21.00;42.30
23271;DHT22;11804;51.118;17.058;2023-05-10T13:58:45;21.00;42.20
23271;DHT22;11804;51.118;17.058;2023-05-10T14:01:14;20.40;43.10
23271;DHT22;11804;51.118;17.058;2023-05-10T14:03:41;20.30;43.60
23271;DHT22;11804;51.118;17.058;2023-05-10T14:06:09;20.40;43.50
23271;DHT22;11804;51.118;17.058;2023-05-10T14:08:37;20.40;43.40
23271;DHT22;11804;51.118;17.058;2023-05-10T14:11:05;20.20;43.00
23271;DHT22;11804;51.118;17.058;2023-05-10T14:13:33;20.20;43.40
23271;DHT22;11804;51.118;17.058;2023-05-10T14:16:01;20.00;43.50
23271;DHT22;11804;51.118;17.058;2023-05-10T14:18:29;20.00;44.10
23271;DHT22;11804;51.118;17.058;2023-05-10T14:20:57;20.00;43.80
23271;DHT22;11804;51.118;17.058;2023-05-10T14:23:24;20.00;43.70
23271;DHT22;11804;51.118;17.058;2023-05-10T14:25:53;20.00;43.40
23271;DHT22;11804;51.118;17.058;2023-05-10T14:28:21;20.20;43.80
23271;DHT22;11804;51.118;17.058;2023-05-10T14:30:50;20.20;43.70
23271;DHT22;11804;51.118;17.058;2023-05-10T14:33:18;19.90;44.10
23271;DHT22;11804;51.118;17.058;2023-05-10T14:35:46;20.20;43.30
23271;DHT22;11804;51.118;17.058;2023-05-10T14:38:14;20.10;43.60
23271;DHT22;11804;51.118;17.058;2023-05-10T14:40:42;20.40;43.40
23271;DHT22;11804;51.118;17.058;2023-05-10T14:43:10;20.60;43.00
23271;DHT22;11804;51.118;17.058;2023-05-10T14:45:38;20.60;42.80
23271;DHT22;11804;51.118;17.058;2023-05-10T14:48:06;20.50;42.80
23271;DHT22;11804;51.118;17.058;2023-05-10T14:50:36;20.60;42.20
23271;DHT22;11804;51.118;17.058;2023-05-10T14:53:05;20.70;42.10
23271;DHT22;11804;51.118;17.058;2023-05-10T14:55:33;20.70;42.00
23271;DHT22;11804;51.118;17.058;2023-05-10T14:58:03;20.80;42.50
23271;DHT22;11804;51.118;17.058;2023-05-10T15:00:31;20.70;42.50
23271;DHT22;11804;51.118;17.058;2023-05-10T15:02:59;20.60;42.50
23271;DHT22;11804;51.118;17.058;2023-05-10T15:05:26;20.60;42.50
23271;DHT22;11804;51.118;17.058;2023-05-10T15:07:54;20.60;42.10
23271;DHT22;11804;51.118;17.058;2023-05-10T15:10:23;20.50;42.30
23271;DHT22;11804;51.118;17.058;2023-05-10T15:12:52;20.40;42.60
23271;DHT22;11804;51.118;17.058;2023-05-10T15:15:19;20.60;43.30
23271;DHT22;11804;51.118;17.058;2023-05-10T15:17:48;20.70;42.40
23271;DHT22;11804;51.118;17.058;2023-05-10T15:20:16;20.60;42.60
23271;DHT22;11804;51.118;17.058;2023-05-10T15:22:43;20.50;42.20
23271;DHT22;11804;51.118;17.058;2023-05-10T15:25:13;20.40;42.10
23271;DHT22;11804;51.118;17.058;2023-05-10T15:27:44;20.50;42.00
23271;DHT22;11804;51.118;17.058;2023-05-10T15:30:12;20.50;41.40
23271;DHT22;11804;51.118;17.058;2023-05-10T15:32:42;20.70;41.70
23271;DHT22;11804;51.118;17.058;2023-05-10T15:35:10;20.60;41.50
23271;DHT22;11804;51.118;17.058;2023-05-10T15:37:38;20.60;41.50
23271;DHT22;11804;51.118;17.058;2023-05-10T15:40:06;20.70;41.10
23271;DHT22;11804;51.118;17.058;2023-05-10T15:42:34;20.70;41.10
23271;DHT22;11804;51.118;17.058;2023-05-10T15:45:03;20.60;41.10
23271;DHT22;11804;51.118;17.058;2023-05-10T15:47:30;20.30;42.00
23271;DHT22;11804;51.118;17.058;2023-05-10T15:49:59;20.30;42.40
23271;DHT22;11804;51.118;17.058;2023-05-10T15:52:27;20.20;42.80
23271;DHT22;11804;51.118;17.058;2023-05-10T15:54:55;20.20;43.70
23271;DHT22;11804;51.118;17.058;2023-05-10T15:57:23;20.30;44.00
23271;DHT22;11804;51.118;17.058;2023-05-10T15:59:51;20.40;43.60
23271;DHT22;11804;51.118;17.058;2023-05-10T16:02:19;20.50;42.90
23271;DHT22;11804;51.118;17.058;2023-05-10T16:04:49;20.60;43.10
23271;DHT22;11804;51.118;17.058;2023-05-10T16:07:39;20.60;42.90
23271;DHT22;11804;51.118;17.058;2023-05-10T16:10:09;20.40;43.20
23271;DHT22;11804;51.118;17.058;2023-05-10T16:12:37;20.30;43.20
23271;DHT22;11804;51.118;17.058;2023-05-10T16:15:10;20.20;43.80